createdAt,value
2019-02-10T00:02:11.763Z,2.00
2019-02-10T00:04:42.529Z,4.03
2019-02-10T00:07:12.968Z,4.23
2019-02-10T00:09:43.444Z,2.57
2019-02-10T00:12:13.873Z,3.58
2019-02-10T00:14:44.358Z,3.33
2019-02-10T00:17:14.825Z,2.43
2019-02-10T00:19:45.666Z,4.40
2019-02-10T00:22:16.655Z,4.50
2019-02-10T00:24:47.360Z,2.17
2019-02-10T00:27:19.647Z,3.77
2019-02-10T00:29:50.087Z,2.10
2019-02-10T00:34:54.817Z,3.23
2019-02-10T00:37:25.232Z,4.00
2019-02-10T00:39:55.661Z,2.43
2019-02-10T00:42:26.092Z,5.00
2019-02-10T00:44:56.340Z,2.90
2019-02-10T00:47:27.189Z,2.37
2019-02-10T00:49:57.619Z,3.03
2019-02-10T00:52:28.407Z,3.23
2019-02-10T00:54:58.833Z,3.33
2019-02-10T00:57:29.289Z,3.02
2019-02-10T00:59:59.735Z,2.53
2019-02-10T01:02:30.164Z,4.40
2019-02-10T01:05:00.588Z,3.40
2019-02-10T01:07:31.021Z,5.13
2019-02-10T01:10:01.453Z,3.73
2019-02-10T01:12:33.261Z,3.40
2019-02-10T01:15:03.724Z,2.63
2019-02-10T01:17:34.122Z,4.60
2019-02-10T01:21:20.095Z,4.07
2019-02-10T01:23:50.592Z,2.30
2019-02-10T01:26:21.007Z,5.00
2019-02-10T01:28:51.434Z,4.27
2019-02-10T01:31:21.935Z,4.50
2019-02-10T01:33:54.335Z,3.30
2019-02-10T01:36:24.752Z,2.87
2019-02-10T01:38:55.165Z,3.93
2019-02-10T01:41:25.652Z,3.57
2019-02-10T01:43:56.069Z,4.73
2019-02-10T01:47:48.172Z,5.77
2019-02-10T01:50:21.780Z,3.23
2019-02-10T01:52:52.261Z,3.33
2019-02-10T01:55:22.757Z,4.30
2019-02-10T01:57:53.190Z,5.80
2019-02-10T02:00:23.976Z,3.97
2019-02-10T02:02:54.697Z,4.93
2019-02-10T02:05:26.876Z,5.30
2019-02-10T02:07:57.348Z,2.77
2019-02-10T02:10:27.801Z,3.60
2019-02-10T02:12:58.193Z,6.23
2019-02-10T02:15:29.751Z,4.03
2019-02-10T02:18:00.182Z,5.05
2019-02-10T02:20:32.215Z,3.73
2019-02-10T02:23:02.627Z,3.10
2019-02-10T02:25:33.065Z,4.10
2019-02-10T02:28:03.787Z,3.23
2019-02-10T02:30:34.215Z,3.77
2019-02-10T02:33:04.654Z,6.23
2019-02-10T02:35:35.141Z,3.97
2019-02-10T02:38:05.716Z,5.50
2019-02-10T02:40:36.147Z,2.23
2019-02-10T02:43:06.560Z,3.80
2019-02-10T02:45:37.068Z,3.47
2019-02-10T02:48:07.481Z,4.57
2019-02-10T02:50:37.942Z,5.33
2019-02-10T02:53:09.164Z,4.17
2019-02-10T02:55:39.593Z,5.37
2019-02-10T02:58:10.009Z,3.73
2019-02-10T03:00:40.600Z,4.87
2019-02-10T03:03:11.046Z,5.47
2019-02-10T03:05:45.255Z,5.33
2019-02-10T03:08:17.957Z,7.63
2019-02-10T03:10:48.493Z,4.10
2019-02-10T03:13:19.675Z,4.07
2019-02-10T03:15:50.114Z,5.53
2019-02-10T03:18:22.817Z,5.27
2019-02-10T03:20:53.255Z,4.47
2019-02-10T03:23:23.668Z,3.37
2019-02-10T03:25:54.099Z,4.83
2019-02-10T03:28:25.233Z,6.53
2019-02-10T03:30:55.689Z,2.60
2019-02-10T03:33:26.156Z,4.83
2019-02-10T03:35:56.579Z,5.93
2019-02-10T03:38:28.790Z,4.50
2019-02-10T03:41:01.237Z,3.93
2019-02-10T03:43:31.949Z,6.30
2019-02-10T03:46:02.510Z,5.80
2019-02-10T03:48:33.402Z,4.10
2019-02-10T03:51:05.944Z,6.10
2019-02-10T03:53:36.362Z,4.80
2019-02-10T03:56:07.173Z,5.93
2019-02-10T03:58:37.592Z,4.60
2019-02-10T04:01:08.044Z,5.50
2019-02-10T04:03:38.470Z,2.60
2019-02-10T04:06:09.349Z,8.03
2019-02-10T04:08:39.757Z,4.53
2019-02-10T04:11:10.192Z,4.27
2019-02-10T04:13:40.622Z,6.90
2019-02-10T04:16:11.080Z,5.13
2019-02-10T04:18:41.469Z,6.67
2019-02-10T04:21:11.921Z,4.60
2019-02-10T04:23:42.455Z,4.83
2019-02-10T04:26:12.880Z,5.33
2019-02-10T04:28:43.286Z,4.00
2019-02-10T04:31:14.005Z,4.60
2019-02-10T04:33:44.421Z,6.17
2019-02-10T04:36:14.878Z,5.17
2019-02-10T04:38:45.330Z,4.63
2019-02-10T04:41:15.766Z,6.27
2019-02-10T04:43:46.284Z,8.73
2019-02-10T04:46:16.729Z,3.83
2019-02-10T04:48:47.121Z,7.47
2019-02-10T04:51:17.558Z,7.57
2019-02-10T04:53:48.068Z,5.10
2019-02-10T04:56:19.826Z,5.47
2019-02-10T04:58:50.557Z,4.07
2019-02-10T05:01:21.009Z,5.73
2019-02-10T05:03:51.406Z,5.00
2019-02-10T05:06:21.890Z,5.33
2019-02-10T05:08:52.354Z,6.13
2019-02-10T05:11:22.869Z,4.97
2019-02-10T05:13:53.271Z,6.03
2019-02-10T05:16:23.704Z,4.57
2019-02-10T05:18:54.125Z,3.80
2019-02-10T05:21:24.558Z,4.67
2019-02-10T05:24:03.221Z,5.80
2019-02-10T05:26:27.747Z,6.63
2019-02-10T05:28:58.152Z,6.60
2019-02-10T05:31:28.675Z,5.10
2019-02-10T05:33:59.170Z,6.77
2019-02-10T05:36:29.623Z,6.37
2019-02-10T05:39:00.162Z,4.80
2019-02-10T05:41:31.069Z,6.77
2019-02-10T05:44:01.514Z,4.73
2019-02-10T05:46:33.797Z,4.43
2019-02-10T05:49:05.281Z,4.97
2019-02-10T05:51:35.833Z,5.70
2019-02-10T05:54:06.246Z,4.70
2019-02-10T05:56:37.793Z,4.03
2019-02-10T05:59:08.206Z,6.03
2019-02-10T06:02:26.674Z,4.27
2019-02-10T06:05:02.922Z,5.50
2019-02-10T06:07:33.488Z,4.63
2019-02-10T06:10:04.159Z,4.83
2019-02-10T06:12:34.643Z,5.57
2019-02-10T06:15:05.389Z,3.47
2019-02-10T06:17:36.038Z,7.20
2019-02-10T06:20:09.680Z,5.27
2019-02-10T06:22:41.736Z,3.47
2019-02-10T06:25:16.264Z,3.50
2019-02-10T06:27:46.709Z,4.80
2019-02-10T06:30:17.499Z,3.87
2019-02-10T06:32:48.445Z,5.30
2019-02-10T06:35:20.350Z,3.83
2019-02-10T06:37:50.839Z,5.77
2019-02-10T06:40:21.862Z,5.90
2019-02-10T06:42:52.342Z,6.67
2019-02-10T06:45:22.888Z,3.70
2019-02-10T06:47:53.935Z,6.23
2019-02-10T06:50:25.340Z,5.57
2019-02-10T06:52:56.979Z,4.47
2019-02-10T06:55:29.122Z,5.33
2019-02-10T06:57:59.602Z,5.63
2019-02-10T07:00:57.329Z,5.87
2019-02-10T07:03:59.255Z,6.70
2019-02-10T07:06:31.367Z,6.93
2019-02-10T07:09:02.355Z,6.90
2019-02-10T07:11:34.586Z,4.83
2019-02-10T07:14:14.192Z,4.97
2019-02-10T07:17:27.691Z,6.33
2019-02-10T07:20:43.734Z,5.77
2019-02-10T07:24:24.641Z,5.43
2019-02-10T07:26:58.892Z,5.90
2019-02-10T07:30:35.552Z,7.27
2019-02-10T07:33:38.523Z,6.10
2019-02-10T07:36:37.356Z,7.37
2019-02-10T07:39:35.958Z,5.40
2019-02-10T07:42:51.727Z,3.43
2019-02-10T07:46:26.461Z,3.63
2019-02-10T07:49:44.748Z,4.33
2019-02-10T07:53:04.817Z,3.17
2019-02-10T07:56:36.981Z,7.43
2019-02-10T08:00:01.493Z,5.80
2019-02-10T08:03:50.901Z,6.13
2019-02-10T08:06:45.917Z,4.40
2019-02-10T08:10:13.390Z,5.63
2019-02-10T08:13:27.015Z,3.57
2019-02-10T08:16:49.734Z,6.00
2019-02-10T08:20:28.934Z,6.23
2019-02-10T08:24:16.812Z,2.95
2019-02-10T08:27:45.419Z,3.37
2019-02-10T08:31:10.923Z,2.80
2019-02-10T08:34:31.663Z,3.62
2019-02-10T08:37:57.187Z,2.33
2019-02-10T08:41:41.002Z,2.53
2019-02-10T08:44:53.536Z,2.80
2019-02-10T08:48:01.515Z,4.60
2019-02-10T08:51:20.595Z,6.33
2019-02-10T08:53:51.113Z,2.83
2019-02-10T08:56:24.040Z,3.00
2019-02-10T08:58:57.174Z,2.98
2019-02-10T09:01:28.688Z,3.47
2019-02-10T09:04:00.366Z,2.47
2019-02-10T09:06:35.446Z,4.03
2019-02-10T09:09:08.344Z,2.90
2019-02-10T09:11:39.949Z,2.83
2019-02-10T09:14:12.537Z,5.78
2019-02-10T09:16:45.535Z,3.98
2019-02-10T09:19:16.920Z,3.45
2019-02-10T09:21:50.202Z,4.37
2019-02-10T09:24:23.813Z,3.67
2019-02-10T09:26:54.314Z,2.92
2019-02-10T09:29:26.787Z,3.23
2019-02-10T09:31:58.961Z,2.05
2019-02-10T09:34:29.387Z,5.30
2019-02-10T09:37:03.948Z,1.10
2019-02-10T09:39:34.503Z,3.25
2019-02-10T09:42:05.162Z,2.10
2019-02-10T09:44:37.079Z,2.00
2019-02-10T09:49:51.997Z,1.07
2019-02-10T09:52:22.438Z,4.17
2019-02-10T09:54:54.427Z,1.50
2019-02-10T09:57:25.587Z,2.65
2019-02-10T09:59:56.361Z,2.17
2019-02-10T10:02:28.297Z,2.12
2019-02-10T10:04:59.027Z,2.08
2019-02-10T10:07:29.904Z,1.85
2019-02-10T10:10:00.340Z,2.58
2019-02-10T10:12:30.793Z,2.15
2019-02-10T10:15:01.243Z,2.60
2019-02-10T10:17:31.668Z,1.52
2019-02-10T10:20:02.060Z,1.65
2019-02-10T10:22:32.484Z,2.70
2019-02-10T10:25:03.179Z,3.27
2019-02-10T10:27:33.694Z,1.82
2019-02-10T10:30:04.673Z,1.95
2019-02-10T10:32:35.226Z,2.35
2019-02-10T10:35:06.116Z,1.32
2019-02-10T10:37:37.175Z,1.82
2019-02-10T10:40:08.177Z,3.27
2019-02-10T10:42:40.208Z,2.02
2019-02-10T10:45:11.426Z,1.30
2019-02-10T10:47:41.874Z,1.55
2019-02-10T10:50:12.851Z,1.75
2019-02-10T10:52:43.311Z,1.12
2019-02-10T10:55:13.787Z,1.47
2019-02-10T10:57:44.267Z,1.62
2019-02-10T11:00:14.942Z,1.57
2019-02-10T11:02:45.456Z,1.40
2019-02-10T11:05:15.916Z,2.10
2019-02-10T11:07:46.365Z,0.93
2019-02-10T11:10:17.920Z,1.65
2019-02-10T11:12:49.489Z,1.75
2019-02-10T11:15:19.938Z,1.57
2019-02-10T11:17:50.398Z,1.10
2019-02-10T11:20:20.949Z,1.10
2019-02-10T11:22:51.416Z,0.93
2019-02-10T11:25:21.877Z,1.05
2019-02-10T11:27:52.360Z,0.88
2019-02-10T11:30:22.827Z,1.27
2019-02-10T11:32:53.288Z,1.98
2019-02-10T11:35:23.806Z,2.65
2019-02-10T11:37:54.273Z,1.10
2019-02-10T11:40:24.797Z,1.40
2019-02-10T11:42:55.297Z,0.50
2019-02-10T11:45:25.842Z,1.90
2019-02-10T11:47:56.381Z,0.80
2019-02-10T11:50:26.901Z,0.70
2019-02-10T11:52:57.439Z,1.98
2019-02-10T11:55:29.068Z,0.80
2019-02-10T11:57:59.590Z,1.20
2019-02-10T12:00:30.082Z,0.70
2019-02-10T12:03:00.669Z,0.80
2019-02-10T12:05:31.149Z,0.55
2019-02-10T12:08:01.893Z,0.98
2019-02-10T12:10:32.695Z,3.90
2019-02-10T12:13:03.131Z,0.65
2019-02-10T12:15:33.602Z,1.02
2019-02-10T12:18:04.036Z,0.68
2019-02-10T12:20:34.949Z,0.50
2019-02-10T12:23:05.469Z,0.82
2019-02-10T12:25:36.057Z,1.27
2019-02-10T12:28:06.481Z,0.60
2019-02-10T12:30:37.009Z,1.37
2019-02-10T12:33:07.427Z,0.65
2019-02-10T12:35:37.956Z,1.37
2019-02-10T12:38:08.432Z,1.92
2019-02-10T12:40:39.017Z,1.10
2019-02-10T12:43:09.497Z,1.80
2019-02-10T12:45:40.023Z,0.93
2019-02-10T12:48:10.602Z,0.80
2019-02-10T12:50:41.641Z,1.80
2019-02-10T12:53:12.135Z,1.42
2019-02-10T12:55:42.668Z,1.37
2019-02-10T12:58:13.170Z,1.92
2019-02-10T13:00:44.841Z,0.78
2019-02-10T13:03:15.242Z,1.12
2019-02-10T13:05:45.708Z,0.72
2019-02-10T13:08:16.265Z,0.70
2019-02-10T13:10:46.740Z,1.17
2019-02-10T13:13:19.288Z,0.60
2019-02-10T13:15:49.408Z,1.27
2019-02-10T13:18:19.944Z,0.50
2019-02-10T13:20:50.490Z,0.78
2019-02-10T13:23:20.934Z,0.40
2019-02-10T13:25:52.804Z,0.35
2019-02-10T13:28:23.395Z,0.50
2019-02-10T13:30:53.877Z,0.55
2019-02-10T13:33:24.428Z,0.75
2019-02-10T13:35:55.007Z,0.50
2019-02-10T13:38:25.457Z,0.57
2019-02-10T13:40:56.088Z,1.37
2019-02-10T13:43:33.363Z,0.82
2019-02-10T13:45:58.879Z,0.40
2019-02-10T13:48:29.390Z,0.75
2019-02-10T13:50:59.887Z,0.62
2019-02-10T13:53:30.422Z,0.70
2019-02-10T13:56:02.576Z,0.55
2019-02-10T13:58:33.045Z,0.60
2019-02-10T14:01:03.833Z,0.55
2019-02-10T14:03:35.489Z,0.75
2019-02-10T14:06:07.514Z,1.05
2019-02-10T14:08:38.031Z,0.40
2019-02-10T14:11:08.532Z,1.67
2019-02-10T14:13:38.990Z,0.50
2019-02-10T14:16:11.154Z,0.88
2019-02-10T14:18:41.639Z,0.50
2019-02-10T14:21:14.839Z,1.05
2019-02-10T14:23:45.291Z,0.35
2019-02-10T14:26:16.172Z,0.50
2019-02-10T14:28:46.626Z,0.50
2019-02-10T14:31:17.108Z,0.50
2019-02-10T14:33:47.598Z,0.70
2019-02-10T14:39:35.709Z,0.68
2019-02-10T14:42:06.237Z,0.70
2019-02-10T14:44:36.995Z,0.50
2019-02-10T14:47:07.791Z,0.85
2019-02-10T14:49:38.609Z,0.80
2019-02-10T14:52:10.244Z,0.60
2019-02-10T14:54:43.087Z,0.40
2019-02-10T14:57:15.115Z,0.60
2019-02-10T14:59:46.700Z,0.55
2019-02-10T15:02:17.335Z,0.70
2019-02-10T15:04:47.922Z,1.17
2019-02-10T15:07:25.243Z,0.40
2019-02-10T15:09:50.657Z,0.78
2019-02-10T15:12:21.153Z,0.85
2019-02-10T15:14:51.647Z,0.60
2019-02-10T15:17:22.113Z,0.50
2019-02-10T15:20:43.982Z,1.02
2019-02-10T15:23:14.557Z,0.65
2019-02-10T15:25:45.066Z,0.78
2019-02-10T15:28:15.536Z,0.70
2019-02-10T15:30:46.131Z,0.85
2019-02-10T15:33:16.910Z,0.68
2019-02-10T15:35:47.854Z,1.17
2019-02-10T15:38:18.334Z,0.88
2019-02-10T15:40:50.234Z,0.42
2019-02-10T15:43:20.974Z,0.70
2019-02-10T15:45:51.499Z,1.37
2019-02-10T15:48:22.012Z,2.45
2019-02-10T15:50:52.610Z,2.17
2019-02-10T15:53:23.081Z,1.00
2019-02-10T15:55:53.606Z,1.05
2019-02-10T15:58:24.526Z,0.57
2019-02-10T16:00:55.039Z,1.45
2019-02-10T16:03:25.494Z,0.85
2019-02-10T16:05:55.996Z,1.00
2019-02-10T16:08:26.573Z,0.65
2019-02-10T16:10:58.448Z,2.60
2019-02-10T16:13:29.132Z,3.02
2019-02-10T16:15:59.827Z,2.30
2019-02-10T16:18:30.317Z,0.70
2019-02-10T16:21:03.210Z,1.90
2019-02-10T16:23:33.622Z,2.47
2019-02-10T16:26:04.132Z,1.12
2019-02-10T16:28:34.572Z,4.33
2019-02-10T16:31:05.048Z,0.80
2019-02-10T16:33:35.528Z,1.57
2019-02-10T16:36:06.052Z,0.80
2019-02-10T16:38:36.505Z,0.70
2019-02-10T16:41:06.995Z,1.50
2019-02-10T16:43:37.475Z,1.35
2019-02-10T16:46:07.943Z,1.30
2019-02-10T16:48:38.418Z,1.00
2019-02-10T16:51:08.699Z,3.12
2019-02-10T16:53:39.175Z,0.82
2019-02-10T16:56:09.699Z,1.40
2019-02-10T16:58:40.151Z,0.78
2019-02-10T17:01:10.599Z,0.72
2019-02-10T17:03:41.118Z,1.10
2019-02-10T17:06:11.622Z,0.80
2019-02-10T17:08:42.151Z,0.57
2019-02-10T17:11:14.475Z,1.15
2019-02-10T17:13:44.824Z,0.80
2019-02-10T17:16:15.389Z,1.05
2019-02-10T17:18:47.339Z,0.68
2019-02-10T17:21:17.833Z,1.20
2019-02-10T17:23:48.480Z,1.47
2019-02-10T17:26:19.139Z,0.90
2019-02-10T17:28:49.615Z,0.50
2019-02-10T17:31:21.170Z,0.60
2019-02-10T17:33:51.599Z,0.70
2019-02-10T17:36:22.752Z,0.82
2019-02-10T17:38:53.304Z,1.60
2019-02-10T17:41:44.993Z,1.50
2019-02-10T17:44:15.558Z,1.35
2019-02-10T17:46:46.153Z,1.17
2019-02-10T17:49:17.017Z,0.68
2019-02-10T17:51:47.506Z,0.70
2019-02-10T17:54:18.071Z,0.53
2019-02-10T17:56:48.564Z,0.88
2019-02-10T17:59:19.057Z,0.93
2019-02-10T18:01:49.583Z,0.80
2019-02-10T18:04:21.213Z,0.45
2019-02-10T18:06:51.898Z,0.62
2019-02-10T18:09:22.337Z,0.78
2019-02-10T18:11:52.827Z,0.57
2019-02-10T18:14:57.584Z,0.50
2019-02-10T18:17:42.250Z,0.80
2019-02-10T18:20:21.858Z,0.70
2019-02-10T18:23:29.685Z,3.02
2019-02-10T18:26:25.080Z,1.47
2019-02-10T18:29:13.266Z,1.60
2019-02-10T18:31:58.591Z,0.57
2019-02-10T18:34:42.991Z,0.62
2019-02-10T18:37:23.081Z,0.70
2019-02-10T18:40:08.117Z,0.57
2019-02-10T18:43:03.646Z,0.45
2019-02-10T18:45:40.676Z,0.80
2019-02-10T18:48:30.203Z,0.98
2019-02-10T18:51:22.866Z,0.70
2019-02-10T18:54:10.217Z,0.80
2019-02-10T18:57:08.893Z,0.65
2019-02-10T19:00:04.106Z,0.82
2019-02-10T19:02:56.342Z,0.70
2019-02-10T19:05:45.371Z,0.20
2019-02-10T19:08:38.032Z,0.40
2019-02-10T19:11:14.620Z,0.50
2019-02-10T19:14:22.436Z,0.70
2019-02-10T19:17:08.968Z,0.70
2019-02-10T19:20:04.224Z,0.65
2019-02-10T19:22:57.003Z,0.75
2019-02-10T19:25:32.935Z,0.50
2019-02-10T19:28:15.566Z,0.53
2019-02-10T19:31:09.393Z,1.00
2019-02-10T19:33:52.157Z,0.45
2019-02-10T19:36:43.269Z,0.98
2019-02-10T19:39:31.449Z,0.70
2019-02-10T19:42:33.249Z,0.45
2019-02-10T19:45:21.723Z,0.35
2019-02-10T19:48:10.016Z,1.55
2019-02-10T19:51:02.467Z,2.00
2019-02-10T19:53:57.795Z,0.60
2019-02-10T19:56:47.270Z,0.90
2019-02-10T19:59:39.565Z,0.90
2019-02-10T20:02:26.955Z,0.93
2019-02-10T20:05:16.958Z,0.60
2019-02-10T20:08:12.400Z,0.20
2019-02-10T20:10:52.886Z,0.40
2019-02-10T20:13:44.917Z,0.70
2019-02-10T20:16:20.827Z,0.98
2019-02-10T20:18:59.598Z,0.60
2019-02-10T20:21:43.601Z,0.35
2019-02-10T20:24:51.584Z,0.57
2019-02-10T20:27:55.969Z,0.55
2019-02-10T20:30:54.516Z,0.37
2019-02-10T20:33:43.169Z,0.20
2019-02-10T20:36:31.799Z,0.30
2019-02-10T20:39:14.310Z,0.45
2019-02-10T20:41:49.292Z,0.15
2019-02-10T20:44:38.021Z,0.25
2019-02-10T20:47:32.418Z,0.20
2019-02-10T20:50:34.161Z,0.20
2019-02-10T20:53:22.171Z,0.37
2019-02-10T20:55:58.874Z,0.30
2019-02-10T20:58:37.786Z,0.85
2019-02-10T21:01:26.854Z,0.17
2019-02-10T21:04:19.383Z,0.20
2019-02-10T21:06:56.353Z,0.20
2019-02-10T21:09:51.546Z,0.10
2019-02-10T21:12:39.855Z,0.10
2019-02-10T21:15:29.853Z,0.20
2019-02-10T21:18:13.509Z,0.40
2019-02-10T21:21:02.007Z,0.45
2019-02-10T21:23:51.766Z,0.20
2019-02-10T21:26:53.443Z,0.55
2019-02-10T21:29:42.890Z,0.57
2019-02-10T21:32:29.847Z,0.10
2019-02-10T21:35:14.891Z,0.28
2019-02-10T21:38:04.935Z,0.40
2019-02-10T21:40:49.307Z,3.83
2019-02-10T21:43:30.312Z,0.60
2019-02-10T21:46:23.824Z,0.00
2019-02-10T21:49:00.942Z,0.10
2019-02-10T21:51:31.425Z,0.03
2019-02-10T21:54:01.894Z,0.10
2019-02-10T21:56:32.567Z,0.17
2019-02-10T21:59:03.031Z,0.00
2019-02-10T22:01:33.469Z,0.10
2019-02-10T22:04:03.933Z,0.00
2019-02-10T22:06:34.384Z,0.10
2019-02-10T22:09:06.232Z,0.00
2019-02-10T22:11:36.632Z,0.10
2019-02-10T22:14:07.115Z,0.42
2019-02-10T22:16:37.614Z,0.00
2019-02-10T22:19:08.675Z,0.00
2019-02-10T22:21:39.143Z,0.00
2019-02-10T22:24:09.590Z,0.00
2019-02-10T22:26:40.008Z,0.00
2019-02-10T22:29:10.524Z,0.00
2019-02-10T22:31:40.936Z,2.33
2019-02-10T22:34:11.376Z,0.00
2019-02-10T22:36:42.584Z,0.00
2019-02-10T22:39:13.060Z,0.13
2019-02-10T22:41:43.746Z,0.30
2019-02-10T22:44:14.165Z,0.10
2019-02-10T22:46:48.299Z,0.10
2019-02-10T22:49:18.747Z,0.08
2019-02-10T22:51:49.169Z,0.00
2019-02-10T22:54:21.154Z,0.00
2019-02-10T22:56:51.550Z,0.07
2019-02-10T22:59:21.978Z,0.00
2019-02-10T23:01:52.765Z,0.10
2019-02-10T23:04:23.222Z,0.10
2019-02-10T23:06:53.639Z,0.10
2019-02-10T23:09:26.717Z,0.00
2019-02-10T23:11:58.694Z,0.10
2019-02-10T23:14:29.995Z,0.72
2019-02-10T23:17:00.435Z,0.00
2019-02-10T23:19:31.143Z,0.33
2019-02-10T23:22:01.592Z,0.65
2019-02-10T23:24:32.272Z,0.10
2019-02-10T23:27:03.008Z,0.07
2019-02-10T23:29:34.423Z,0.10
2019-02-10T23:32:05.134Z,0.00
2019-02-10T23:34:35.597Z,0.10
2019-02-10T23:37:06.050Z,0.30
2019-02-10T23:39:36.529Z,0.00
2019-02-10T23:42:06.999Z,0.27
2019-02-10T23:44:46.351Z,0.23
2019-02-10T23:47:16.794Z,0.10
2019-02-10T23:49:47.443Z,0.87
2019-02-10T23:52:17.931Z,0.13
2019-02-10T23:54:48.356Z,0.00
2019-02-10T23:57:18.759Z,0.20
2019-02-10T23:59:49.527Z,1.65
